Time;durP1;ratioP1;P1;durP2;ratioP2;P2;SDS_P1;SDS_P2;PMS_P1;PMS_P2;Temp;Humidity;BMP_temperature;BMP_pressure;BME280_temperature;BME280_humidity;BME280_pressure;Samples;Min_cycle;Max_cycle;Signal;HPM_P1;HPM_P2
2021/07/18 00:01:10;;;;;;;13.73;12.33;;;;;;;22.28;73.10;100325.92;128142;1098;25815;-77
2021/07/18 00:03:40;;;;;;;15.73;13.70;;;;;;;22.26;73.30;100322.69;128011;1098;25034;-77
2021/07/18 00:06:10;;;;;;;13.28;11.45;;;;;;;22.25;73.59;100319.16;128205;1098;22375;-77
2021/07/18 00:08:39;;;;;;;14.45;12.63;;;;;;;22.23;73.26;100323.98;128175;1098;25086;-78
2021/07/18 00:11:09;;;;;;;16.50;12.65;;;;;;;22.20;73.75;100329.85;128033;1098;22385;-78
2021/07/18 00:13:38;;;;;;;15.73;12.47;;;;;;;22.18;73.79;100323.08;128148;1098;22380;-78
2021/07/18 00:16:08;;;;;;;17.70;12.85;;;;;;;22.17;73.83;100326.84;128198;1098;22376;-77
2021/07/18 00:18:37;;;;;;;15.43;13.50;;;;;;;22.18;74.28;100323.08;128192;1098;22397;-77
2021/07/18 00:21:08;;;;;;;14.15;12.33;;;;;;;22.18;74.44;100328.46;128236;1097;22440;-78
2021/07/18 00:23:37;;;;;;;16.20;14.10;;;;;;;22.17;74.34;100322.27;128053;1098;22820;-78
2021/07/18 00:26:07;;;;;;;17.58;15.88;;;;;;;22.17;74.41;100316.89;128199;1098;24527;-79
2021/07/18 00:28:37;;;;;;;17.88;15.65;;;;;;;22.15;73.94;100319.00;128155;1098;22380;-76
2021/07/18 00:31:06;;;;;;;14.45;13.05;;;;;;;22.13;74.55;100314.91;128207;1098;24371;-76
2021/07/18 00:33:36;;;;;;;15.68;14.18;;;;;;;22.11;74.56;100307.07;128239;1098;22394;-77
2021/07/18 00:36:06;;;;;;;15.20;13.67;;;;;;;22.10;74.52;100313.52;128242;1097;22830;-77
2021/07/18 00:38:35;;;;;;;16.43;14.68;;;;;;;22.09;74.42;100317.25;128226;1098;22384;-76
2021/07/18 00:41:05;;;;;;;15.08;13.63;;;;;;;22.06;74.45;100323.95;128260;1098;22421;-77
2021/07/18 00:43:34;;;;;;;16.18;14.63;;;;;;;22.04;74.55;100326.06;128228;1098;22376;-77
2021/07/18 00:46:04;;;;;;;14.35;13.00;;;;;;;22.04;74.70;100327.94;128170;1097;22399;-77
2021/07/18 00:48:34;;;;;;;14.73;13.28;;;;;;;22.03;74.54;100327.13;128201;1098;22399;-76
2021/07/18 00:51:04;;;;;;;14.53;13.05;;;;;;;22.03;74.45;100318.25;128224;1098;22843;-77
2021/07/18 00:53:34;;;;;;;15.25;12.30;;;;;;;22.02;74.62;100317.41;128168;1098;22374;-77
2021/07/18 00:56:04;;;;;;;14.98;13.50;;;;;;;22.01;74.50;100312.28;128185;1098;22379;-78
2021/07/18 00:58:36;;;;;;;14.83;13.43;;;;;;;21.98;74.29;100316.27;128230;1098;22379;-76
2021/07/18 01:01:05;;;;;;;14.43;12.70;;;;;;;21.97;74.10;100320.03;128194;1098;23349;-77
2021/07/18 01:03:35;;;;;;;14.05;12.23;;;;;;;21.94;74.21;100317.83;128169;1098;22387;-77
2021/07/18 01:06:05;;;;;;;13.25;11.93;;;;;;;21.93;74.55;100312.70;128226;1097;23121;-78
2021/07/18 01:08:34;;;;;;;16.15;12.35;;;;;;;21.91;74.41;100318.31;128232;1098;24209;-78
2021/07/18 01:11:04;;;;;;;15.07;13.77;;;;;;;21.87;74.30;100325.24;128282;1098;24077;-78
2021/07/18 01:13:33;;;;;;;15.55;13.98;;;;;;;21.84;74.51;100317.66;128259;1098;22379;-78
2021/07/18 01:16:03;;;;;;;14.68;13.18;;;;;;;21.81;74.58;100321.64;128212;1097;22395;-78
2021/07/18 01:18:34;;;;;;;14.35;12.90;;;;;;;21.81;74.78;100315.45;128048;1098;22398;-78
2021/07/18 01:21:05;;;;;;;13.80;12.50;;;;;;;21.75;74.81;100313.73;128183;1098;22375;-79
2021/07/18 01:23:37;;;;;;;13.95;12.75;;;;;;;21.72;74.59;100316.90;128227;1098;23366;-77
2021/07/18 01:26:08;;;;;;;15.35;13.95;;;;;;;21.70;74.85;100319.03;128041;1098;22375;-78
2021/07/18 01:28:37;;;;;;;15.90;14.13;;;;;;;21.64;74.60;100311.93;128212;1098;22382;-78
2021/07/18 01:31:08;;;;;;;17.70;12.93;;;;;;;21.60;74.64;100319.66;127984;1098;22375;-78
2021/07/18 01:33:37;;;;;;;16.40;13.13;;;;;;;21.56;75.07;100330.08;128230;1098;22376;-78
2021/07/18 01:36:07;;;;;;;15.70;12.75;;;;;;;21.54;74.94;100334.88;128220;1098;22382;-78
2021/07/18 01:38:36;;;;;;;16.18;14.58;;;;;;;21.51;74.97;100335.34;127962;1096;22599;-79
2021/07/18 01:41:06;;;;;;;16.53;13.55;;;;;;;21.48;75.09;100341.20;127957;1097;25843;-79
2021/07/18 01:43:36;;;;;;;14.48;13.00;;;;;;;21.45;75.14;100336.30;127981;1098;22395;-78
2021/07/18 01:46:05;;;;;;;14.65;13.10;;;;;;;21.43;75.14;100335.75;127945;1098;22375;-77
2021/07/18 01:48:35;;;;;;;15.40;12.90;;;;;;;21.41;75.10;100334.34;127957;1098;22376;-77
2021/07/18 01:51:05;;;;;;;14.73;13.50;;;;;;;21.42;75.45;100331.41;127998;1098;22396;-77
2021/07/18 01:53:34;;;;;;;15.80;13.75;;;;;;;21.45;75.49;100340.87;127943;1098;25058;-77
2021/07/18 01:56:04;;;;;;;14.95;13.43;;;;;;;21.45;75.19;100347.05;127975;1098;22378;-78
2021/07/18 01:58:33;;;;;;;15.70;14.05;;;;;;;21.45;75.50;100347.05;128152;1098;22380;-78
2021/07/18 02:01:03;;;;;;;18.95;13.90;;;;;;;21.45;75.57;100346.24;128275;1098;22398;-77
2021/07/18 02:03:33;;;;;;;16.85;14.00;;;;;;;21.44;75.86;100355.37;128216;1098;22373;-78
2021/07/18 02:06:04;;;;;;;18.28;15.25;;;;;;;21.44;75.66;100353.49;128261;1098;23291;-78
2021/07/18 02:08:34;;;;;;;15.53;14.20;;;;;;;21.46;75.91;100359.45;128234;1098;22386;-77
2021/07/18 02:11:04;;;;;;;15.68;14.08;;;;;;;21.47;75.75;100357.58;128165;1098;23230;-78
2021/07/18 02:13:34;;;;;;;16.38;13.93;;;;;;;21.48;75.83;100356.52;128244;1098;22846;-77
2021/07/18 02:16:03;;;;;;;14.78;13.43;;;;;;;21.51;76.18;100362.23;128059;1098;22395;-78
2021/07/18 02:18:33;;;;;;;15.38;14.08;;;;;;;21.52;75.52;100363.84;128201;1098;22377;-78
2021/07/18 02:21:03;;;;;;;16.90;14.67;;;;;;;21.52;75.72;100363.84;128240;1098;22395;-76
2021/07/18 02:23:33;;;;;;;17.68;14.58;;;;;;;21.53;75.75;100364.69;128243;1098;22417;-77
2021/07/18 02:26:03;;;;;;;15.83;14.23;;;;;;;21.52;75.59;100371.91;128066;1098;22401;-77
2021/07/18 02:28:33;;;;;;;16.70;15.30;;;;;;;21.51;75.67;100364.91;128219;1098;22394;-77
2021/07/18 02:31:06;;;;;;;16.95;14.98;;;;;;;21.51;75.74;100372.98;128227;1098;22851;-77
2021/07/18 02:33:36;;;;;;;17.08;15.28;;;;;;;21.50;76.03;100374.05;128159;1098;22382;-78
2021/07/18 02:36:06;;;;;;;20.87;15.30;;;;;;;21.51;76.13;100375.66;128174;1098;22380;-79
2021/07/18 02:38:35;;;;;;;17.28;15.68;;;;;;;21.50;76.25;100373.23;128172;1098;22383;-78
2021/07/18 02:41:05;;;;;;;17.70;16.08;;;;;;;21.49;76.09;100375.11;128191;1098;22397;-78
2021/07/18 02:43:34;;;;;;;17.98;16.20;;;;;;;21.50;76.17;100375.92;128173;1098;22391;-78
2021/07/18 02:46:04;;;;;;;17.48;15.50;;;;;;;21.50;76.28;100376.73;128072;1098;22825;-77
2021/07/18 02:48:38;;;;;;;17.50;15.75;;;;;;;21.51;75.92;100381.04;128212;1097;22425;-78
2021/07/18 02:51:08;;;;;;;16.55;14.65;;;;;;;21.51;76.33;100377.55;128204;1098;25023;-77
2021/07/18 02:53:37;;;;;;;16.93;15.23;;;;;;;21.51;76.16;100372.16;128099;1098;22487;-77
2021/07/18 02:56:07;;;;;;;16.43;14.73;;;;;;;21.50;76.02;100368.66;128229;1098;22376;-78
2021/07/18 02:58:37;;;;;;;18.48;16.58;;;;;;;21.50;76.40;100370.55;128016;1097;22395;-77
2021/07/18 03:01:06;;;;;;;20.08;17.33;;;;;;;21.47;75.94;100371.83;128215;1098;22693;-77
2021/07/18 03:03:35;;;;;;;20.05;18.13;;;;;;;21.45;76.32;100371.23;128187;1098;22397;-78
2021/07/18 03:06:05;;;;;;;20.75;17.93;;;;;;;21.43;76.36;100359.93;128180;1098;22375;-77
2021/07/18 03:08:35;;;;;;;25.85;18.55;;;;;;;21.47;76.50;100368.33;128188;1098;22824;-77
2021/07/18 03:11:05;;;;;;;20.40;18.40;;;;;;;21.47;76.71;100371.83;128230;1098;22387;-77
2021/07/18 03:13:34;;;;;;;18.70;16.90;;;;;;;21.47;76.61;100379.89;128179;1098;22379;-77
2021/07/18 03:16:05;;;;;;;22.15;19.95;;;;;;;21.47;76.67;100376.39;128216;1098;23389;-79
2021/07/18 03:18:34;;;;;;;19.55;17.70;;;;;;;21.49;76.52;100374.27;128162;1098;22539;-77
2021/07/18 03:21:04;;;;;;;21.77;18.90;;;;;;;21.51;76.87;100380.23;128206;1098;24268;-77
2021/07/18 03:23:33;;;;;;;21.05;18.18;;;;;;;21.53;77.01;100375.44;128168;1098;22510;-77
2021/07/18 03:26:03;;;;;;;19.25;17.25;;;;;;;21.55;76.85;100376.81;128169;1098;22667;-77
2021/07/18 03:28:33;;;;;;;21.80;17.35;;;;;;;21.58;77.15;100378.21;127997;1098;22375;-76
2021/07/18 03:31:02;;;;;;;19.15;17.05;;;;;;;21.61;77.00;100383.11;128167;1098;22373;-77
2021/07/18 03:33:32;;;;;;;20.48;18.33;;;;;;;21.61;76.94;100381.23;128132;1098;24865;-77
2021/07/18 03:36:02;;;;;;;21.53;18.23;;;;;;;21.60;77.18;100373.42;128150;1098;22394;-77
2021/07/18 03:38:31;;;;;;;20.40;18.35;;;;;;;21.61;77.03;100377.73;127988;1098;22390;-76
2021/07/18 03:41:02;;;;;;;21.53;18.78;;;;;;;21.59;77.00;100380.67;128186;1096;22395;-76
2021/07/18 03:43:31;;;;;;;21.70;18.47;;;;;;;21.57;77.00;100381.97;128230;1098;22417;-77
2021/07/18 03:46:02;;;;;;;20.03;18.20;;;;;;;21.56;77.22;100391.09;128139;1098;22394;-78
2021/07/18 03:48:32;;;;;;;;;;;;;;;21.51;77.29;100391.79;128194;1098;22395;-77
2021/07/18 03:51:01;;;;;;;20.08;17.33;;;;;;;21.49;77.53;100401.14;128192;1098;21270;-78
2021/07/18 03:53:31;;;;;;;21.80;17.93;;;;;;;21.52;77.77;100406.04;128164;1098;22902;-77
2021/07/18 03:56:01;;;;;;;19.40;17.50;;;;;;;21.54;77.46;100403.95;127983;1098;24279;-77
2021/07/18 03:58:30;;;;;;;19.43;16.53;;;;;;;21.55;77.29;100398.31;128271;1098;24268;-77
2021/07/18 04:01:00;;;;;;;17.00;15.20;;;;;;;21.53;76.95;100400.45;128274;1097;23321;-78
2021/07/18 04:03:30;;;;;;;17.83;13.90;;;;;;;21.53;77.22;100400.45;128202;1098;22380;-78
2021/07/18 04:06:00;;;;;;;14.85;13.33;;;;;;;21.56;77.35;100402.66;128231;1098;22376;-78
2021/07/18 04:08:30;;;;;;;14.98;13.20;;;;;;;21.55;76.75;100403.69;128195;1098;22374;-78
2021/07/18 04:11:00;;;;;;;17.00;15.20;;;;;;;21.56;76.81;100399.97;128244;1098;23155;-76
2021/07/18 04:13:29;;;;;;;15.23;12.65;;;;;;;21.60;76.81;100408.37;128215;1098;23726;-77
2021/07/18 04:15:59;;;;;;;16.03;12.03;;;;;;;21.64;76.71;100403.33;128160;1098;22372;-77
2021/07/18 04:18:28;;;;;;;15.18;11.93;;;;;;;21.66;76.51;100401.20;128216;1098;22372;-77
2021/07/18 04:20:58;;;;;;;14.43;11.98;;;;;;;21.66;76.14;100401.20;128010;1098;22417;-78
2021/07/18 04:23:29;;;;;;;19.03;12.20;;;;;;;21.65;75.97;100405.77;128189;1098;22370;-76
2021/07/18 04:25:59;;;;;;;13.48;12.08;;;;;;;21.66;75.79;100406.58;128168;1098;22391;-74
2021/07/18 04:28:28;;;;;;;13.98;12.33;;;;;;;21.66;75.76;100407.41;128012;1098;22367;-77
2021/07/18 04:30:58;;;;;;;13.70;11.33;;;;;;;21.65;75.68;100405.77;128228;1096;22370;-76
2021/07/18 04:33:27;;;;;;;15.93;10.83;;;;;;;21.65;75.40;100407.64;128176;1098;24512;-77
2021/07/18 04:35:57;;;;;;;12.65;11.13;;;;;;;21.65;75.03;100400.38;128164;1098;23331;-77
2021/07/18 04:38:26;;;;;;;11.90;10.65;;;;;;;21.65;75.34;100407.64;128187;1098;22391;-77
2021/07/18 04:40:56;;;;;;;15.15;10.88;;;;;;;21.66;74.99;100407.41;128193;1098;22388;-78
2021/07/18 04:43:25;;;;;;;12.10;10.60;;;;;;;21.70;75.54;100413.13;128215;1098;22393;-77
2021/07/18 04:45:55;;;;;;;13.90;11.23;;;;;;;21.74;75.09;100414.28;128254;1097;22385;-77
2021/07/18 04:48:24;;;;;;;14.18;11.03;;;;;;;21.77;75.01;100419.17;128212;1098;22372;-77
2021/07/18 04:50:54;;;;;;;10.88;9.78;;;;;;;21.82;74.96;100411.19;128280;1096;22369;-76
2021/07/18 04:53:23;;;;;;;15.85;10.23;;;;;;;21.82;74.79;100417.38;127991;1098;25020;-77
2021/07/18 04:55:55;;;;;;;13.60;10.98;;;;;;;21.84;74.17;100419.84;128193;1098;24548;-77
2021/07/18 04:58:24;;;;;;;13.50;10.75;;;;;;;21.86;74.40;100409.67;128204;1098;22375;-78
2021/07/18 05:00:54;;;;;;;10.53;9.38;;;;;;;21.92;74.72;100416.75;128156;1098;22370;-78
2021/07/18 05:03:23;;;;;;;10.25;8.98;;;;;;;21.97;73.93;100418.73;128139;1096;22369;-78
2021/07/18 05:05:53;;;;;;;10.35;9.23;;;;;;;22.01;74.30;100415.31;128231;1098;22391;-78
2021/07/18 05:08:22;;;;;;;9.58;8.60;;;;;;;22.06;73.98;100428.05;128165;1098;22372;-77
2021/07/18 05:10:52;;;;;;;13.25;9.48;;;;;;;22.12;73.74;100426.25;128172;1098;22402;-78
2021/07/18 05:13:22;;;;;;;9.53;8.70;;;;;;;22.17;73.79;100431.77;128200;1098;22369;-78
2021/07/18 05:15:51;;;;;;;13.38;9.73;;;;;;;22.23;73.17;100434.30;128141;1098;22392;-78
2021/07/18 05:18:21;;;;;;;14.98;9.58;;;;;;;22.25;73.05;100431.36;128202;1098;22391;-79
2021/07/18 05:20:51;;;;;;;14.20;11.68;;;;;;;22.34;73.00;100440.67;128168;1098;24266;-78
2021/07/18 05:23:20;;;;;;;10.93;9.73;;;;;;;22.50;73.22;100444.44;128252;1098;22378;-78
2021/07/18 05:25:50;;;;;;;14.28;9.75;;;;;;;22.63;72.28;100443.31;128003;1098;22385;-78
2021/07/18 05:28:19;;;;;;;11.40;8.63;;;;;;;22.70;71.95;100438.56;128185;1098;23316;-78
2021/07/18 05:30:49;;;;;;;9.68;8.80;;;;;;;22.83;71.66;100442.81;128190;1097;22397;-78
2021/07/18 05:33:19;;;;;;;9.07;8.17;;;;;;;22.95;71.56;100438.15;128227;1098;24250;-77
2021/07/18 05:35:48;;;;;;;11.90;9.20;;;;;;;23.06;71.03;100448.02;128207;1098;24518;-79
2021/07/18 05:38:18;;;;;;;10.48;8.68;;;;;;;23.11;70.25;100447.27;128232;1098;25241;-77
2021/07/18 05:40:56;;;;;;;10.18;7.80;;;;;;;23.07;70.03;100446.14;128234;1097;22825;-77
2021/07/18 05:43:26;;;;;;;9.78;8.75;;;;;;;23.08;69.57;100450.46;128219;1098;22388;-77
2021/07/18 05:45:56;;;;;;;11.80;8.48;;;;;;;23.13;69.64;100453.23;128225;1098;24266;-77
2021/07/18 05:48:26;;;;;;;14.00;8.93;;;;;;;23.21;69.39;100450.91;128220;1098;22415;-78
2021/07/18 05:50:55;;;;;;;12.18;8.80;;;;;;;23.31;69.34;100452.93;127936;1101;22379;-78
2021/07/18 05:53:25;;;;;;;14.20;9.80;;;;;;;23.37;69.23;100451.94;127467;1101;24807;-77
2021/07/18 05:55:54;;;;;;;10.43;8.88;;;;;;;23.51;68.60;100446.17;127484;1101;22411;-76
2021/07/18 05:58:24;;;;;;;12.17;9.87;;;;;;;23.81;68.72;100443.86;127389;1101;22407;-80
2021/07/18 06:00:53;;;;;;;9.93;8.65;;;;;;;24.10;67.35;100457.13;127399;1101;22399;-79
2021/07/18 06:03:23;;;;;;;14.43;8.98;;;;;;;24.35;66.15;100457.34;127471;1101;23243;-77
2021/07/18 06:05:52;;;;;;;11.93;9.45;;;;;;;24.52;65.29;100467.23;127470;1101;22410;-78
2021/07/18 06:08:22;;;;;;;11.00;9.93;;;;;;;24.62;64.88;100461.91;127472;1098;22415;-78
2021/07/18 06:10:51;;;;;;;10.80;9.68;;;;;;;24.88;64.68;100461.03;127954;1098;22828;-78
2021/07/18 06:13:21;;;;;;;10.15;8.80;;;;;;;25.12;63.55;100460.66;128227;1098;22404;-78
2021/07/18 06:15:50;;;;;;;11.73;9.15;;;;;;;25.24;62.91;100458.58;128213;1097;22372;-78
2021/07/18 06:18:20;;;;;;;9.45;8.38;;;;;;;25.32;62.29;100474.32;128201;1098;22420;-78
2021/07/18 06:20:49;;;;;;;10.28;9.25;;;;;;;25.30;62.13;100471.05;128173;1098;22821;-78
2021/07/18 06:23:19;;;;;;;10.20;9.30;;;;;;;25.31;61.88;100463.75;128158;1098;25020;-79
2021/07/18 06:26:04;;;;;;;10.20;9.30;;;;;;;25.51;62.04;100469.25;128228;1098;22376;-78
2021/07/18 06:28:34;;;;;;;9.68;8.78;;;;;;;25.72;60.73;100470.13;128132;1098;22390;-80
2021/07/18 06:31:04;;;;;;;11.73;10.35;;;;;;;25.88;60.45;100465.62;127983;1098;22378;-79
2021/07/18 06:33:33;;;;;;;11.78;9.48;;;;;;;26.10;60.06;100460.00;128420;1098;24269;-78
2021/07/18 06:36:04;;;;;;;13.20;9.40;;;;;;;26.41;58.71;100462.73;128295;1098;22400;-77
2021/07/18 06:38:35;;;;;;;9.53;8.58;;;;;;;26.75;58.61;100463.02;128182;1098;22385;-78
2021/07/18 06:41:06;;;;;;;10.47;7.77;;;;;;;27.17;58.14;100454.56;128197;1097;22422;-79
2021/07/18 06:43:35;;;;;;;9.70;8.40;;;;;;;27.59;56.54;100449.78;127968;1098;22484;-78
2021/07/18 06:46:25;;;;;;;9.15;7.98;;;;;;;28.03;55.22;100460.72;128117;1098;22386;-79
2021/07/18 06:48:55;;;;;;;10.15;9.00;;;;;;;28.26;53.59;100451.05;128276;1098;22408;-78
2021/07/18 06:51:25;;;;;;;9.90;8.90;;;;;;;28.31;52.80;100453.72;128223;1098;22375;-78
2021/07/18 06:53:55;;;;;;;11.50;8.68;;;;;;;28.38;52.88;100450.67;128221;1098;22376;-82
2021/07/18 06:56:33;;;;;;;10.45;8.05;;;;;;;28.59;52.93;100460.33;128158;1098;22401;-76
2021/07/18 06:59:02;;;;;;;;;;;;;;;28.90;52.43;100454.59;128241;1098;22401;-81
2021/07/18 07:01:32;;;;;;;9.68;8.75;;;;;;;29.17;51.92;100461.42;128259;1098;21265;-79
2021/07/18 07:04:02;;;;;;;9.93;9.03;;;;;;;29.46;50.93;100453.19;128211;1098;24215;-78
2021/07/18 07:06:31;;;;;;;9.13;8.25;;;;;;;29.67;50.50;100457.29;128024;1098;22385;-78
2021/07/18 07:09:01;;;;;;;9.30;7.80;;;;;;;29.62;49.64;100459.26;128242;1098;22368;-79
2021/07/18 07:11:31;;;;;;;8.17;7.40;;;;;;;29.45;49.42;100457.80;128069;1098;22382;-78
2021/07/18 07:14:00;;;;;;;9.83;8.85;;;;;;;29.44;49.47;100452.66;128241;1098;22381;-78
2021/07/18 07:16:31;;;;;;;10.13;9.18;;;;;;;29.58;48.80;100458.20;128262;1098;22385;-78
2021/07/18 07:19:00;;;;;;;8.40;7.70;;;;;;;29.73;48.30;100463.48;128043;1098;22390;-80
2021/07/18 07:21:30;;;;;;;8.35;7.65;;;;;;;29.80;47.89;100468.56;128033;1098;22817;-78
2021/07/18 07:24:00;;;;;;;8.25;7.43;;;;;;;29.88;47.77;100463.25;128038;1098;22401;-78
2021/07/18 07:26:31;;;;;;;15.30;13.80;;;;;;;30.10;47.63;100467.31;128347;1098;22385;-78
2021/07/18 07:29:00;;;;;;;;;;;;;;;30.21;47.88;100466.08;128149;1098;22377;-78
2021/07/18 07:31:30;;;;;;;8.98;7.98;;;;;;;30.32;47.29;100464.80;128222;1098;21263;-79
2021/07/18 07:33:59;;;;;;;13.50;7.78;;;;;;;30.55;46.61;100462.26;128232;1098;22376;-77
2021/07/18 07:36:29;;;;;;;10.25;7.93;;;;;;;30.69;46.11;100461.20;128200;1098;22377;-78
2021/07/18 07:38:59;;;;;;;8.63;7.73;;;;;;;30.87;45.73;100453.27;128300;1098;22375;-78
2021/07/18 07:41:28;;;;;;;10.38;7.53;;;;;;;31.03;45.61;100451.88;128173;1098;22407;-78
2021/07/18 07:43:59;;;;;;;8.53;7.75;;;;;;;31.34;44.87;100451.30;128180;1097;22394;-78
2021/07/18 07:46:29;;;;;;;8.63;7.83;;;;;;;31.49;43.97;100450.16;128315;1098;22375;-79
2021/07/18 07:48:59;;;;;;;9.20;7.23;;;;;;;31.57;44.17;100457.64;128158;1097;22418;-78
2021/07/18 07:51:28;;;;;;;7.93;7.23;;;;;;;31.65;43.17;100465.10;128024;1097;23351;-78
2021/07/18 07:53:58;;;;;;;7.88;7.28;;;;;;;31.61;42.85;100453.18;128166;1098;24256;-78
2021/07/18 07:56:27;;;;;;;8.98;8.18;;;;;;;31.55;43.03;100454.40;128166;1098;22398;-78
2021/07/18 07:58:57;;;;;;;13.10;8.18;;;;;;;31.64;43.51;100452.58;128173;1098;22399;-78
2021/07/18 08:01:26;;;;;;;10.70;7.58;;;;;;;31.93;43.06;100446.77;128231;1098;22394;-78
2021/07/18 08:03:56;;;;;;;10.30;7.30;;;;;;;32.08;42.21;100454.59;128213;1098;23161;-78
2021/07/18 08:06:26;;;;;;;9.33;6.95;;;;;;;32.08;41.89;100438.20;128191;1098;22404;-78
2021/07/18 08:08:55;;;;;;;8.38;7.68;;;;;;;32.23;41.47;100453.44;128049;1098;22398;-79
2021/07/18 08:11:25;;;;;;;11.63;10.48;;;;;;;32.45;41.01;100454.56;128253;1097;24517;-78
2021/07/18 08:13:54;;;;;;;;;;;;;;;32.71;40.27;100452.78;128253;1098;22388;-79
2021/07/18 08:16:24;;;;;;;9.65;7.30;;;;;;;32.87;40.09;100449.66;128106;1098;22830;-78
2021/07/18 08:18:53;;;;;;;8.93;7.47;;;;;;;33.14;39.60;100454.94;128252;1098;22420;-78
2021/07/18 08:21:23;;;;;;;7.43;6.78;;;;;;;33.40;38.89;100459.70;128281;1097;22154;-78
2021/07/18 08:24:09;;;;;;;8.98;7.48;;;;;;;33.72;38.28;100461.22;128087;1098;22389;-78
2021/07/18 08:26:39;;;;;;;8.40;7.53;;;;;;;33.93;37.84;100455.93;128244;1098;22402;-79
2021/07/18 08:29:09;;;;;;;8.70;7.75;;;;;;;33.73;37.56;100460.91;128040;1098;22404;-77
2021/07/18 08:31:38;;;;;;;32.25;11.53;;;;;;;33.31;38.01;100461.59;128229;1098;25034;-79
2021/07/18 08:34:08;;;;;;;23.68;9.28;;;;;;;32.87;39.06;100464.14;128106;1098;22414;-78
2021/07/18 08:36:38;;;;;;;9.13;8.23;;;;;;;32.62;39.30;100464.80;127901;1099;24534;-79
2021/07/18 08:39:07;;;;;;;7.63;7.00;;;;;;;32.47;39.64;100455.88;127890;1101;22404;-78
2021/07/18 08:41:43;;;;;;;8.00;6.97;;;;;;;32.42;39.15;100458.72;127927;1101;22387;-78
2021/07/18 08:44:15;;;;;;;7.48;6.88;;;;;;;32.43;39.56;100457.63;128166;1101;22409;-79
2021/07/18 08:46:45;;;;;;;11.28;9.55;;;;;;;32.33;39.43;100460.58;127578;1101;24562;-79
2021/07/18 08:49:15;;;;;;;7.85;7.00;;;;;;;32.15;40.01;100459.63;127913;1100;22492;-79
2021/07/18 08:51:45;;;;;;;10.55;7.05;;;;;;;31.86;39.54;100466.28;127965;1098;24537;-80
2021/07/18 08:54:18;;;;;;;10.58;7.43;;;;;;;31.62;39.46;100454.79;128225;1098;22974;-79
2021/07/18 08:56:47;;;;;;;7.93;7.18;;;;;;;31.35;39.57;100450.17;128025;1098;22386;-80
2021/07/18 08:59:17;;;;;;;;;;;;;;;31.28;40.49;100453.28;128001;1096;22376;-80
2021/07/18 09:01:46;;;;;;;7.63;5.58;;;;;;;31.57;39.74;100454.91;128447;1098;22385;-78
2021/07/18 09:04:16;;;;;;;6.70;5.90;;;;;;;31.72;39.55;100446.38;128069;1101;22388;-79
2021/07/18 09:06:49;;;;;;;6.40;5.75;;;;;;;31.77;38.75;100449.00;128148;1101;22415;-79
2021/07/18 09:09:21;;;;;;;7.13;5.80;;;;;;;31.77;39.14;100456.39;128272;1099;22405;-79
2021/07/18 09:11:59;;;;;;;32.43;8.55;;;;;;;31.84;38.74;100454.84;127948;1101;22404;-78
2021/07/18 09:14:39;;;;;;;13.93;6.67;;;;;;;32.05;38.08;100449.74;128166;1101;24278;-78
2021/07/18 09:17:13;;;;;;;7.47;6.40;;;;;;;32.39;37.38;100442.94;128004;1101;22370;-80
2021/07/18 09:19:47;;;;;;;9.28;7.18;;;;;;;32.66;37.05;100441.20;127992;1101;24206;-80
2021/07/18 09:22:22;;;;;;;8.30;7.25;;;;;;;32.82;36.41;100436.91;128010;1098;22385;-78
2021/07/18 09:24:57;;;;;;;10.30;6.13;;;;;;;32.97;36.26;100446.67;128175;1098;24548;-79
2021/07/18 09:27:33;;;;;;;6.90;4.75;;;;;;;33.07;35.76;100451.86;128566;1098;24510;-79
2021/07/18 09:30:17;;;;;;;6.28;4.53;;;;;;;33.16;35.13;100447.23;128392;1098;22402;-79
2021/07/18 09:32:48;;;;;;;7.13;4.95;;;;;;;33.38;34.64;100450.98;128486;1101;22525;-80
2021/07/18 09:35:20;;;;;;;7.75;4.75;;;;;;;33.64;34.40;100446.39;128142;1101;23313;-79
2021/07/18 09:37:50;;;;;;;5.55;4.93;;;;;;;33.81;34.49;100447.53;128106;1099;25058;-80
2021/07/18 09:40:24;;;;;;;5.50;4.53;;;;;;;33.79;34.36;100441.56;128075;1101;24961;-79
2021/07/18 09:42:59;;;;;;;6.95;4.50;;;;;;;33.71;34.08;100452.20;128064;1101;22388;-78
2021/07/18 09:45:31;;;;;;;6.45;4.53;;;;;;;33.76;33.97;100443.03;128307;1101;22404;-78
2021/07/18 09:48:09;;;;;;;8.98;5.45;;;;;;;33.93;33.55;100442.23;128046;1101;22404;-77
2021/07/18 09:50:45;;;;;;;7.90;4.90;;;;;;;34.11;33.23;100449.33;128166;1098;23307;-78
2021/07/18 09:53:21;;;;;;;8.43;4.88;;;;;;;34.13;32.81;100452.56;128340;1098;22401;-78
2021/07/18 09:56:17;;;;;;;5.10;4.55;;;;;;;34.18;32.58;100449.64;128071;1098;22430;-78
2021/07/18 09:58:56;;;;;;;7.35;4.88;;;;;;;34.31;32.30;100444.31;128094;1098;25043;-79
2021/07/18 10:01:26;;;;;;;8.65;4.30;;;;;;;34.40;32.42;100447.85;128089;1098;22429;-79
2021/07/18 10:03:57;;;;;;;6.95;4.60;;;;;;;34.35;32.40;100448.01;128281;1098;22484;-78
2021/07/18 10:06:29;;;;;;;6.70;4.70;;;;;;;34.17;32.45;100444.50;128122;1098;22496;-82
2021/07/18 10:09:09;;;;;;;6.45;4.80;;;;;;;33.87;33.20;100441.58;128078;1098;22376;-79
2021/07/18 10:11:39;;;;;;;10.63;5.18;;;;;;;33.71;33.98;100433.02;128095;1098;22385;-79
2021/07/18 10:14:09;;;;;;;8.00;5.53;;;;;;;33.67;34.20;100436.73;128341;1098;22396;-80
2021/07/18 10:16:39;;;;;;;6.50;5.45;;;;;;;33.62;34.04;100418.53;128260;1098;22388;-80
2021/07/18 10:19:09;;;;;;;;;;;;;;;33.49;34.18;100419.48;128079;1098;22484;-80
2021/07/18 10:21:39;;;;;;;9.58;5.98;;;;;;;33.25;34.48;100426.14;128074;1098;21269;-79
2021/07/18 10:24:11;;;;;;;7.40;5.50;;;;;;;32.91;35.06;100415.87;128205;1098;22403;-82
2021/07/18 10:26:41;;;;;;;6.55;5.25;;;;;;;32.74;36.19;100415.80;128353;1098;24304;-81
2021/07/18 10:29:12;;;;;;;;;;;;;;;32.56;35.25;100410.25;128119;1098;24521;-81
2021/07/18 10:31:51;;;;;;;7.98;6.10;;;;;;;32.34;35.94;100405.58;128471;1096;21257;-84
2021/07/18 10:34:34;;;;;;;12.23;6.10;;;;;;;32.22;36.35;100413.53;128538;1098;22712;-81
2021/07/18 10:37:12;;;;;;;6.70;5.23;;;;;;;32.16;36.30;100405.77;128130;1098;22379;-80
2021/07/18 10:39:44;;;;;;;8.18;5.53;;;;;;;32.01;35.93;100404.23;128163;1098;22396;-80
2021/07/18 10:42:24;;;;;;;8.53;5.18;;;;;;;31.93;35.31;100397.59;128182;1098;24859;-80
2021/07/18 10:44:53;;;;;;;6.88;4.85;;;;;;;31.77;35.97;100391.65;128360;1098;25062;-83
2021/07/18 10:47:23;;;;;;;7.13;5.25;;;;;;;31.63;36.34;100382.70;128311;1098;22376;-83
2021/07/18 10:50:00;;;;;;;6.50;5.90;;;;;;;31.58;36.76;100386.34;128169;1098;22500;-82
2021/07/18 10:52:34;;;;;;;6.25;5.65;;;;;;;31.46;37.19;100388.81;128330;1101;24291;-82
2021/07/18 10:55:23;;;;;;;13.33;6.48;;;;;;;31.25;37.60;100393.05;128198;1098;22384;-81
2021/07/18 10:57:53;;;;;;;6.03;5.33;;;;;;;31.04;37.96;100387.21;128356;1098;22404;-83
2021/07/18 11:00:26;;;;;;;8.38;4.90;;;;;;;30.93;37.94;100390.14;128023;1099;22821;-82
2021/07/18 11:03:07;;;;;;;10.70;5.45;;;;;;;30.83;38.37;100408.63;127698;1101;22401;-80
2021/07/18 11:06:19;;;;;;;9.80;5.10;;;;;;;30.73;38.12;100409.59;127901;1101;22386;-83
2021/07/18 11:09:15;;;;;;;13.23;5.33;;;;;;;30.64;37.70;100397.77;127796;1098;22396;-80
2021/07/18 11:11:50;;;;;;;11.23;4.93;;;;;;;30.57;37.88;100400.88;128060;1101;22454;-81
2021/07/18 11:14:36;;;;;;;7.50;4.28;;;;;;;30.42;37.81;100393.80;128283;1098;22424;-82
2021/07/18 11:17:10;;;;;;;7.60;4.28;;;;;;;30.28;37.87;100389.41;127821;1101;22405;-83
2021/07/18 11:20:00;;;;;;;8.10;4.30;;;;;;;30.12;38.38;100392.34;127916;1101;22401;-80
2021/07/18 11:22:59;;;;;;;6.15;4.20;;;;;;;29.95;38.74;100389.35;128155;1098;22399;-80
2021/07/18 11:25:47;;;;;;;7.15;4.15;;;;;;;29.82;38.50;100399.08;128051;1098;22394;-80
2021/07/18 11:29:04;;;;;;;12.13;5.30;;;;;;;29.72;38.71;100412.84;128166;1098;24518;-80